Time;durP1;ratioP1;P1;durP2;ratioP2;P2;SDS_P1;SDS_P2;PMS_P1;PMS_P2;Temp;Humidity;BMP_temperature;BMP_pressure;BME280_temperature;BME280_humidity;BME280_pressure;Samples;Min_cycle;Max_cycle;Signal;HPM_P1;HPM_P2
2022/09/21 00:00:29;;;;;;;4.43;1.60;;;8.80;99.90;;;;;;5087525;28;20040;-63
2022/09/21 00:02:56;;;;;;;4.95;1.67;;;8.80;99.90;;;;;;5086873;28;20044;-63
2022/09/21 00:05:23;;;;;;;7.15;1.70;;;8.70;99.90;;;;;;5085735;28;20079;-63
2022/09/21 00:07:49;;;;;;;7.63;1.80;;;8.70;99.90;;;;;;5088288;28;20525;-63
2022/09/21 00:10:15;;;;;;;6.15;1.98;;;8.70;99.90;;;;;;5087655;28;20108;-63
2022/09/21 00:12:41;;;;;;;3.78;1.50;;;8.70;99.90;;;;;;5088085;28;20306;-63
2022/09/21 00:15:09;;;;;;;7.15;2.10;;;8.60;99.90;;;;;;5070811;28;20056;-63
2022/09/21 00:17:36;;;;;;;5.22;1.80;;;8.60;99.90;;;;;;5073452;28;20071;-63
2022/09/21 00:20:05;;;;;;;4.85;1.45;;;8.60;99.90;;;;;;5089159;28;20860;-63
2022/09/21 00:22:32;;;;;;;4.03;1.90;;;8.50;99.90;;;;;;5086718;28;20040;-63
2022/09/21 00:24:58;;;;;;;4.65;1.77;;;8.50;99.90;;;;;;5088717;28;20036;-63
2022/09/21 00:27:28;;;;;;;4.80;1.55;;;8.50;99.90;;;;;;5079057;28;20101;-63
2022/09/21 00:30:02;;;;;;;3.53;1.70;;;8.50;99.90;;;;;;5070277;28;20051;-62
2022/09/21 00:32:32;;;;;;;9.65;2.40;;;8.50;99.90;;;;;;5087510;28;20040;-63
2022/09/21 00:34:59;;;;;;;13.77;2.17;;;8.40;99.90;;;;;;5086868;28;20043;-63
2022/09/21 00:37:26;;;;;;;7.13;2.17;;;8.40;99.90;;;;;;5082904;28;20036;-63
2022/09/21 00:39:52;;;;;;;9.02;1.65;;;8.40;99.90;;;;;;5081714;28;20052;-63
2022/09/21 00:42:37;;;;;;;6.35;1.80;;;8.40;99.90;;;;;;5088399;28;20044;-63
2022/09/21 00:45:05;;;;;;;10.10;1.95;;;8.40;99.90;;;;;;5085785;28;20037;-62
2022/09/21 00:47:43;;;;;;;6.13;1.98;;;8.30;99.90;;;;;;5086127;28;20059;-63
2022/09/21 00:50:16;;;;;;;3.33;1.67;;;8.30;99.90;;;;;;5088352;28;20047;-63
2022/09/21 00:52:46;;;;;;;5.43;1.60;;;8.40;99.90;;;;;;5068101;28;20048;-63
2022/09/21 00:55:21;;;;;;;4.65;2.08;;;8.30;99.90;;;;;;5086877;28;20040;-63
2022/09/21 00:57:51;;;;;;;9.70;2.25;;;8.30;99.90;;;;;;5074878;28;20139;-63
2022/09/21 01:00:17;;;;;;;;;;;8.20;99.90;;;;;;5069898;28;20105;-63
2022/09/21 01:02:43;;;;;;;2.25;1.50;;;8.20;99.90;;;;;;5069120;28;19924;-63
2022/09/21 01:05:09;;;;;;;13.45;1.63;;;8.20;99.90;;;;;;5086793;28;20447;-63
2022/09/21 01:07:42;;;;;;;7.03;1.60;;;8.20;99.90;;;;;;5085405;28;20097;-63
2022/09/21 01:10:11;;;;;;;6.80;1.88;;;8.10;99.90;;;;;;5086259;28;20577;-63
2022/09/21 01:12:46;;;;;;;5.93;2.03;;;8.10;99.90;;;;;;5087759;28;20089;-63
2022/09/21 01:15:36;;;;;;;4.63;1.50;;;8.10;99.90;;;;;;5086869;28;20047;-63
2022/09/21 01:18:14;;;;;;;4.43;2.05;;;8.10;99.90;;;;;;5055418;28;20464;-63
2022/09/21 01:21:41;;;;;;;7.90;1.67;;;8.10;99.90;;;;;;5087198;28;20055;-63
2022/09/21 01:24:43;;;;;;;7.38;2.13;;;8.20;99.90;;;;;;4998079;28;20112;-63
2022/09/21 01:27:45;;;;;;;7.70;1.73;;;8.20;99.90;;;;;;5077298;28;20056;-63
2022/09/21 01:30:17;;;;;;;5.72;1.67;;;8.20;99.90;;;;;;5015217;28;20525;-63
2022/09/21 01:33:08;;;;;;;4.93;1.42;;;8.20;99.90;;;;;;5066531;28;20094;-63
2022/09/21 01:36:08;;;;;;;4.18;1.60;;;8.10;99.90;;;;;;5064160;28;20080;-63
2022/09/21 01:39:06;;;;;;;6.30;1.58;;;8.00;99.90;;;;;;5053351;28;20056;-63
2022/09/21 01:41:34;;;;;;;8.85;1.65;;;8.00;99.90;;;;;;5064644;28;20049;-63
2022/09/21 01:44:07;;;;;;;2.97;1.40;;;8.00;99.90;;;;;;5063568;28;20076;-63
2022/09/21 01:46:35;;;;;;;4.28;1.55;;;7.90;99.90;;;;;;5063239;28;20071;-63
2022/09/21 01:49:30;;;;;;;7.32;1.83;;;7.90;99.90;;;;;;5065705;28;20045;-63
2022/09/21 01:52:10;;;;;;;11.05;2.45;;;7.90;99.90;;;;;;5060938;28;20170;-63
2022/09/21 01:54:44;;;;;;;11.45;2.58;;;7.90;99.90;;;;;;5061104;28;20040;-63
2022/09/21 01:57:25;;;;;;;9.25;2.05;;;8.00;99.90;;;;;;5052236;28;20049;-63
2022/09/21 01:59:57;;;;;;;5.70;2.08;;;8.00;99.90;;;;;;5052271;28;20095;-63
2022/09/21 02:02:30;;;;;;;4.93;2.13;;;8.00;99.90;;;;;;5058437;28;20411;-63
2022/09/21 02:05:02;;;;;;;9.02;2.28;;;7.90;99.90;;;;;;5060924;28;20045;-63
2022/09/21 02:07:29;;;;;;;3.55;1.80;;;7.90;99.90;;;;;;5065236;28;20061;-63
2022/09/21 02:09:55;;;;;;;6.00;2.13;;;7.90;99.90;;;;;;5064960;28;20056;-63
2022/09/21 02:12:21;;;;;;;8.02;1.70;;;7.90;99.90;;;;;;5064764;28;20048;-63
2022/09/21 02:14:49;;;;;;;5.95;2.13;;;8.00;99.90;;;;;;5064552;28;20491;-63
2022/09/21 02:17:40;;;;;;;5.13;1.83;;;7.90;99.90;;;;;;5066760;28;20044;-63
2022/09/21 02:20:39;;;;;;;7.88;2.55;;;7.80;99.90;;;;;;5065731;28;20518;-63
2022/09/21 02:23:22;;;;;;;12.17;2.33;;;7.90;99.90;;;;;;5026132;28;20149;-63
2022/09/21 02:25:58;;;;;;;7.80;1.95;;;7.80;99.90;;;;;;5056458;28;20078;-63
2022/09/21 02:28:52;;;;;;;3.95;2.13;;;7.80;99.90;;;;;;5059306;28;20049;-63
2022/09/21 02:31:53;;;;;;;5.88;1.95;;;7.80;99.90;;;;;;5053608;28;20056;-63
2022/09/21 02:34:36;;;;;;;5.82;2.20;;;7.70;99.90;;;;;;5033293;28;20099;-63
2022/09/21 02:37:21;;;;;;;4.32;2.10;;;7.70;99.90;;;;;;5065008;28;20048;-63
2022/09/21 02:39:55;;;;;;;5.43;2.03;;;7.70;99.90;;;;;;5065635;28;20047;-63
2022/09/21 02:42:28;;;;;;;4.25;2.45;;;7.70;99.90;;;;;;5059400;28;20041;-63
2022/09/21 02:45:06;;;;;;;4.93;2.25;;;7.70;99.90;;;;;;5060642;28;20090;-63
2022/09/21 02:47:43;;;;;;;6.28;2.60;;;7.70;99.90;;;;;;5065143;28;20566;-63
2022/09/21 02:50:15;;;;;;;4.38;2.50;;;7.70;99.90;;;;;;5064784;28;20524;-63
2022/09/21 02:52:43;;;;;;;9.75;2.35;;;7.60;99.90;;;;;;5066605;28;20437;-63
2022/09/21 02:55:12;;;;;;;6.82;2.50;;;7.60;99.90;;;;;;5065889;28;20067;-63
2022/09/21 02:57:37;;;;;;;3.65;2.42;;;7.60;99.90;;;;;;5065125;28;20329;-63
2022/09/21 03:00:05;;;;;;;4.03;2.05;;;7.60;99.90;;;;;;5065858;28;20502;-63
2022/09/21 03:02:39;;;;;;;5.88;2.17;;;7.60;99.90;;;;;;5061700;28;20510;-64
2022/09/21 03:05:06;;;;;;;3.22;2.17;;;7.60;99.90;;;;;;5047883;28;20064;-63
2022/09/21 03:07:32;;;;;;;4.20;2.05;;;7.60;99.90;;;;;;5064401;28;20445;-63
2022/09/21 03:09:58;;;;;;;7.88;1.90;;;7.60;99.90;;;;;;5057935;28;20052;-64
2022/09/21 03:12:25;;;;;;;3.30;2.08;;;7.50;99.90;;;;;;5066198;28;20501;-64
2022/09/21 03:14:52;;;;;;;2.53;1.83;;;7.50;99.90;;;;;;5068483;28;20375;-63
2022/09/21 03:17:18;;;;;;;5.03;2.65;;;7.50;99.90;;;;;;5068475;28;20044;-64
2022/09/21 03:19:43;;;;;;;5.45;1.95;;;7.50;99.90;;;;;;5068182;28;20047;-64
2022/09/21 03:22:09;;;;;;;6.35;2.17;;;7.60;99.90;;;;;;5068124;28;20040;-64
2022/09/21 03:24:44;;;;;;;2.40;2.03;;;7.60;99.90;;;;;;5068033;28;20037;-64
2022/09/21 03:27:10;;;;;;;5.85;2.30;;;7.60;99.90;;;;;;5069482;28;20527;-64
2022/09/21 03:29:36;;;;;;;4.30;2.35;;;7.60;99.90;;;;;;5077095;28;20571;-64
2022/09/21 03:32:02;;;;;;;7.53;2.25;;;7.60;99.90;;;;;;5088185;28;20093;-64
2022/09/21 03:34:31;;;;;;;4.80;2.10;;;7.50;99.90;;;;;;5087485;28;20044;-64
2022/09/21 03:36:57;;;;;;;4.35;2.33;;;7.50;99.90;;;;;;5069376;28;20567;-64
2022/09/21 03:39:22;;;;;;;7.35;2.63;;;7.50;99.90;;;;;;5088076;28;20422;-63
2022/09/21 03:41:49;;;;;;;8.88;2.83;;;7.50;99.90;;;;;;5057647;28;20074;-64
2022/09/21 03:44:16;;;;;;;7.85;2.50;;;7.50;99.90;;;;;;5087985;28;20062;-64
2022/09/21 03:46:42;;;;;;;3.80;2.03;;;7.60;99.90;;;;;;5087824;28;20044;-64
2022/09/21 03:49:08;;;;;;;7.57;2.80;;;7.60;99.90;;;;;;5089217;28;20059;-64
2022/09/21 03:51:34;;;;;;;5.90;2.78;;;7.60;99.90;;;;;;5088845;28;20289;-64
2022/09/21 03:53:59;;;;;;;6.03;2.20;;;7.60;99.90;;;;;;5063763;28;20135;-64
2022/09/21 03:56:25;;;;;;;3.75;1.70;;;7.70;99.90;;;;;;5087927;28;20497;-64
2022/09/21 03:58:51;;;;;;;5.00;1.70;;;7.70;99.90;;;;;;5052713;28;20051;-64
2022/09/21 04:01:16;;;;;;;1.70;1.60;;;7.70;99.90;;;;;;5088835;28;20047;-64
2022/09/21 04:03:42;;;;;;;4.43;1.80;;;7.60;99.90;;;;;;5047924;28;20059;-64
2022/09/21 04:06:09;;;;;;;5.80;2.47;;;7.50;99.90;;;;;;5070177;28;20048;-64
2022/09/21 04:08:35;;;;;;;15.63;2.25;;;7.40;99.90;;;;;;5082260;28;20098;-64
2022/09/21 04:11:01;;;;;;;5.20;2.33;;;7.50;99.90;;;;;;5087723;28;20127;-64
2022/09/21 04:13:27;;;;;;;7.40;2.60;;;7.60;99.90;;;;;;5070412;28;20094;-65
2022/09/21 04:15:52;;;;;;;3.80;2.22;;;7.60;99.90;;;;;;5087087;28;20044;-64
2022/09/21 04:18:18;;;;;;;3.70;2.10;;;7.70;99.90;;;;;;5082280;28;20482;-64
2022/09/21 04:20:44;;;;;;;5.55;2.28;;;7.60;99.90;;;;;;5085856;28;20123;-64
2022/09/21 04:23:10;;;;;;;8.82;2.72;;;7.50;99.90;;;;;;5087388;28;20193;-64
2022/09/21 04:25:36;;;;;;;6.10;2.50;;;7.50;99.90;;;;;;5087839;28;20051;-64
2022/09/21 04:28:01;;;;;;;8.98;2.25;;;7.60;99.90;;;;;;5086105;28;20090;-64
2022/09/21 04:30:28;;;;;;;8.75;2.72;;;7.60;99.90;;;;;;5087432;28;20048;-64
2022/09/21 04:32:55;;;;;;;12.95;2.70;;;7.60;99.90;;;;;;5086695;28;20036;-64
2022/09/21 04:35:20;;;;;;;12.10;3.83;;;7.60;99.90;;;;;;5088818;28;20044;-64
2022/09/21 04:37:48;;;;;;;6.20;3.13;;;7.60;99.90;;;;;;5087028;28;20066;-64
2022/09/21 04:40:13;;;;;;;5.95;2.72;;;7.60;99.90;;;;;;5086853;28;20044;-64
2022/09/21 04:42:39;;;;;;;11.23;2.70;;;7.60;99.90;;;;;;5085791;28;20135;-64
2022/09/21 04:45:06;;;;;;;13.45;2.90;;;7.60;99.90;;;;;;5052586;28;20125;-64
2022/09/21 04:47:32;;;;;;;7.03;2.58;;;7.60;99.90;;;;;;5087515;28;20123;-63
2022/09/21 04:49:58;;;;;;;13.18;2.88;;;7.50;99.90;;;;;;5065175;28;20123;-64
2022/09/21 04:52:24;;;;;;;12.90;2.95;;;7.50;99.90;;;;;;5087962;28;20447;-64
2022/09/21 04:54:49;;;;;;;3.45;2.40;;;7.40;99.90;;;;;;5086572;28;20040;-64
2022/09/21 04:57:15;;;;;;;9.63;2.40;;;7.40;99.90;;;;;;5069935;28;20063;-64
2022/09/21 04:59:42;;;;;;;10.88;3.40;;;7.40;99.90;;;;;;5085612;28;20826;-64
2022/09/21 05:02:07;;;;;;;12.18;2.60;;;7.40;99.90;;;;;;5068675;28;20047;-64
2022/09/21 05:04:33;;;;;;;14.10;3.35;;;7.40;99.90;;;;;;5069057;28;20032;-64
2022/09/21 05:06:59;;;;;;;10.70;2.83;;;7.30;99.90;;;;;;5086963;28;20432;-64
2022/09/21 05:12:09;;;;;;;9.55;2.70;;;7.30;99.90;;;;;;5085119;28;20416;-64
2022/09/21 05:14:35;;;;;;;7.68;2.65;;;7.30;99.90;;;;;;5087477;28;20040;-64
2022/09/21 05:17:00;;;;;;;7.75;2.90;;;7.30;99.90;;;;;;5086109;28;20040;-64
2022/09/21 05:19:26;;;;;;;9.70;2.88;;;7.20;99.90;;;;;;5087465;28;20433;-64
2022/09/21 05:21:52;;;;;;;7.80;2.53;;;7.30;99.90;;;;;;5084542;28;20044;-64
2022/09/21 05:24:17;;;;;;;6.95;2.40;;;7.20;99.90;;;;;;5087028;28;20059;-64
2022/09/21 05:26:43;;;;;;;14.13;3.10;;;7.30;99.90;;;;;;5069077;28;20452;-64
2022/09/21 05:29:09;;;;;;;12.48;3.08;;;7.20;99.90;;;;;;5067547;28;20056;-64
2022/09/21 05:31:49;;;;;;;15.35;3.38;;;7.20;99.90;;;;;;5085924;28;20059;-64
2022/09/21 05:34:44;;;;;;;10.23;3.60;;;7.20;99.90;;;;;;5085481;28;20040;-64
2022/09/21 05:37:48;;;;;;;15.40;3.10;;;7.30;99.90;;;;;;5044992;28;20060;-64
2022/09/21 05:40:16;;;;;;;17.20;3.08;;;7.30;99.90;;;;;;5068772;28;20056;-64
2022/09/21 05:42:42;;;;;;;7.13;2.80;;;7.40;99.90;;;;;;5066378;28;20126;-64
2022/09/21 05:45:13;;;;;;;11.52;2.78;;;7.50;99.90;;;;;;5086078;28;20086;-64
2022/09/21 05:47:51;;;;;;;7.05;2.53;;;7.40;99.90;;;;;;5068282;28;20055;-64
2022/09/21 05:50:40;;;;;;;10.98;2.38;;;7.40;99.90;;;;;;5086434;28;20074;-64
2022/09/21 05:53:47;;;;;;;8.90;2.30;;;7.40;99.90;;;;;;5084853;28;20040;-64
2022/09/21 05:56:51;;;;;;;16.77;3.03;;;7.40;99.90;;;;;;5037372;28;20056;-64
2022/09/21 05:59:40;;;;;;;6.05;2.63;;;7.40;99.90;;;;;;5044467;28;20537;-64
2022/09/21 06:02:29;;;;;;;6.63;2.58;;;7.40;99.90;;;;;;5086541;28;20075;-64
2022/09/21 06:04:58;;;;;;;4.15;2.33;;;7.40;99.90;;;;;;5080068;28;20101;-64
2022/09/21 06:07:24;;;;;;;5.82;2.30;;;7.40;99.90;;;;;;5068801;28;20505;-64
2022/09/21 06:09:50;;;;;;;3.75;1.95;;;7.40;99.90;;;;;;5068291;28;20131;-64
2022/09/21 06:12:15;;;;;;;4.85;1.90;;;7.50;99.90;;;;;;5085414;28;20044;-64
2022/09/21 06:14:41;;;;;;;10.50;2.17;;;7.50;99.90;;;;;;5085321;28;20047;-64
2022/09/21 06:17:07;;;;;;;4.78;2.17;;;7.60;99.90;;;;;;5084939;28;20086;-64
2022/09/21 06:19:33;;;;;;;10.05;2.50;;;7.60;99.90;;;;;;5068914;28;20098;-64
2022/09/21 06:21:59;;;;;;;8.45;2.50;;;7.60;99.90;;;;;;5084879;28;20496;-64
2022/09/21 06:24:24;;;;;;;7.40;2.35;;;7.80;99.90;;;;;;5082682;28;20123;-64
2022/09/21 06:26:50;;;;;;;5.95;2.35;;;8.00;99.90;;;;;;5085757;28;20397;-64
2022/09/21 06:29:22;;;;;;;12.93;2.67;;;8.20;99.90;;;;;;5054175;28;20494;-64
2022/09/21 06:31:49;;;;;;;7.93;3.28;;;8.40;99.90;;;;;;5086235;28;20055;-64
2022/09/21 06:34:15;;;;;;;9.40;2.97;;;8.80;99.90;;;;;;5083524;28;20079;-64
2022/09/21 06:36:41;;;;;;;10.73;2.65;;;9.20;99.90;;;;;;5086295;28;20075;-64
2022/09/21 06:39:06;;;;;;;6.78;2.47;;;9.40;99.90;;;;;;5085143;28;20052;-64
2022/09/21 06:41:32;;;;;;;6.72;2.85;;;9.70;99.90;;;;;;5086526;28;20039;-64
2022/09/21 06:43:58;;;;;;;7.13;2.42;;;9.90;99.90;;;;;;5085635;28;20040;-64
2022/09/21 06:46:23;;;;;;;7.25;2.00;;;10.10;99.90;;;;;;5086489;28;20044;-64
2022/09/21 06:48:49;;;;;;;14.05;2.30;;;10.30;99.90;;;;;;5088766;28;20114;-64
2022/09/21 06:51:15;;;;;;;9.15;2.50;;;10.50;99.90;;;;;;5089045;28;20051;-64
2022/09/21 06:53:41;;;;;;;11.20;2.13;;;10.70;99.90;;;;;;5090344;28;20483;-64
2022/09/21 06:56:08;;;;;;;7.85;2.28;;;10.80;99.90;;;;;;5078644;28;20043;-64
2022/09/21 06:58:34;;;;;;;9.48;2.60;;;10.90;99.90;;;;;;5090059;28;20134;-64
2022/09/21 07:01:08;;;;;;;9.18;2.35;;;11.10;99.90;;;;;;5059312;28;20036;-64
2022/09/21 07:03:34;;;;;;;11.43;2.63;;;11.30;99.90;;;;;;5090048;28;20040;-64
2022/09/21 07:05:59;;;;;;;8.15;2.28;;;11.40;99.90;;;;;;5088964;28;20035;-64
2022/09/21 07:08:25;;;;;;;9.38;2.42;;;11.60;99.90;;;;;;5053009;28;20182;-64
2022/09/21 07:10:51;;;;;;;10.38;2.42;;;11.80;99.90;;;;;;5090121;28;20075;-64
2022/09/21 07:13:17;;;;;;;15.27;2.58;;;12.00;99.90;;;;;;5088330;28;20094;-64
2022/09/21 07:15:43;;;;;;;9.80;2.85;;;12.10;99.90;;;;;;5088415;28;20473;-64
2022/09/21 07:18:11;;;;;;;13.65;2.75;;;12.30;99.90;;;;;;5068722;28;20043;-64
2022/09/21 07:20:38;;;;;;;8.35;2.42;;;12.40;99.90;;;;;;5071896;28;20144;-64
2022/09/21 07:23:13;;;;;;;9.70;2.75;;;12.50;99.90;;;;;;5070418;28;20067;-64
2022/09/21 07:25:39;;;;;;;14.70;2.08;;;12.60;99.90;;;;;;5088167;28;20051;-64
2022/09/21 07:28:04;;;;;;;13.45;3.03;;;12.80;99.90;;;;;;5088959;28;20059;-64
2022/09/21 07:30:30;;;;;;;11.48;2.67;;;12.90;99.90;;;;;;5087690;28;20142;-64
2022/09/21 07:32:57;;;;;;;6.53;2.08;;;13.10;99.90;;;;;;5087650;28;20842;-64
2022/09/21 07:35:23;;;;;;;9.13;2.10;;;13.20;99.90;;;;;;5084761;28;20060;-64
2022/09/21 07:37:49;;;;;;;8.38;2.33;;;13.40;99.90;;;;;;5089198;28;20039;-64
2022/09/21 07:40:14;;;;;;;11.57;2.47;;;13.60;99.90;;;;;;5068557;28;20563;-64
2022/09/21 07:42:40;;;;;;;11.02;2.45;;;13.70;99.90;;;;;;5069982;28;20036;-64
2022/09/21 07:45:07;;;;;;;11.23;2.40;;;13.80;99.90;;;;;;5087935;28;20063;-64
2022/09/21 07:47:32;;;;;;;6.70;2.08;;;13.90;99.90;;;;;;5069031;28;20047;-64
2022/09/21 07:49:58;;;;;;;6.97;1.88;;;14.00;99.90;;;;;;5089684;28;20051;-64
2022/09/21 07:52:23;;;;;;;13.25;3.17;;;14.10;99.90;;;;;;5087871;28;20127;-64
2022/09/21 07:54:49;;;;;;;8.85;2.00;;;14.30;99.90;;;;;;5084058;28;20047;-65
2022/09/21 07:59:59;;;;;;;13.45;2.42;;;14.50;99.90;;;;;;5087506;28;20131;-64
2022/09/21 08:02:25;;;;;;;8.02;1.88;;;14.60;99.90;;;;;;5088261;28;20636;-64
2022/09/21 08:04:51;;;;;;;10.82;2.00;;;14.70;99.90;;;;;;5069065;28;20158;-64
2022/09/21 08:07:16;;;;;;;12.32;2.10;;;14.80;99.90;;;;;;5070502;28;20502;-64
2022/09/21 08:09:42;;;;;;;11.65;1.92;;;14.90;99.90;;;;;;5067397;28;20044;-64
2022/09/21 08:12:09;;;;;;;4.75;1.77;;;15.00;99.90;;;;;;5088823;28;20055;-64
2022/09/21 08:14:35;;;;;;;10.05;1.98;;;15.10;99.90;;;;;;5085997;28;20040;-64
2022/09/21 08:17:01;;;;;;;8.05;2.30;;;15.00;99.90;;;;;;5088764;28;20513;-64
2022/09/21 08:19:27;;;;;;;9.15;1.65;;;15.00;99.90;;;;;;5067277;28;20058;-64
2022/09/21 08:21:53;;;;;;;12.32;2.42;;;15.10;99.90;;;;;;5077895;28;20048;-64
2022/09/21 08:24:19;;;;;;;12.25;2.20;;;15.10;99.90;;;;;;5069860;28;20044;-64
2022/09/21 08:26:45;;;;;;;12.40;2.10;;;15.20;99.90;;;;;;5069509;28;20119;-64
2022/09/21 08:29:13;;;;;;;11.73;1.95;;;15.30;99.90;;;;;;5087787;28;20142;-64
2022/09/21 08:31:39;;;;;;;12.82;2.05;;;15.40;99.90;;;;;;5077431;28;20088;-64
2022/09/21 08:34:04;;;;;;;17.40;1.77;;;15.40;99.90;;;;;;5088346;28;20132;-64
2022/09/21 08:36:31;;;;;;;11.57;1.73;;;15.40;99.90;;;;;;5068916;28;20093;-64
2022/09/21 08:38:56;;;;;;;6.57;1.50;;;15.40;99.90;;;;;;5070167;28;20043;-64
2022/09/21 08:41:43;;;;;;;6.63;1.88;;;15.50;99.90;;;;;;5085863;28;20048;-65
2022/09/21 08:44:22;;;;;;;10.00;1.70;;;15.50;97.70;;;;;;5086765;28;20040;-63
2022/09/21 08:47:03;;;;;;;8.65;2.42;;;15.30;96.70;;;;;;5070079;28;20055;-64
2022/09/21 08:49:32;;;;;;;8.52;1.77;;;15.30;98.70;;;;;;5086753;28;20048;-64
2022/09/21 08:52:06;;;;;;;10.10;2.35;;;15.40;99.20;;;;;;5081546;28;20047;-64
2022/09/21 08:54:46;;;;;;;7.68;1.98;;;15.50;99.90;;;;;;5087300;28;20085;-64
2022/09/21 08:57:14;;;;;;;12.55;2.13;;;15.60;97.20;;;;;;5086683;28;20383;-64
2022/09/21 08:59:45;;;;;;;7.93;1.38;;;15.70;96.30;;;;;;5069762;28;20861;-64
2022/09/21 09:02:34;;;;;;;5.72;1.30;;;15.80;96.90;;;;;;5084778;28;20092;-64
2022/09/21 09:05:25;;;;;;;9.25;1.27;;;15.90;97.70;;;;;;5052328;28;20044;-64
2022/09/21 09:08:19;;;;;;;6.47;1.50;;;15.80;92.20;;;;;;5088120;28;20489;-63
2022/09/21 09:11:11;;;;;;;7.65;1.20;;;15.80;88.60;;;;;;5082077;28;20406;-64
2022/09/21 09:13:52;;;;;;;7.60;1.13;;;15.80;91.90;;;;;;5081191;28;20056;-64
2022/09/21 09:16:43;;;;;;;8.93;1.88;;;15.90;95.50;;;;;;5083504;28;20048;-64
2022/09/21 09:19:19;;;;;;;6.28;0.90;;;16.00;87.80;;;;;;5063493;28;20070;-64
2022/09/21 09:21:45;;;;;;;4.22;0.90;;;16.00;89.60;;;;;;5087249;28;20086;-64
2022/09/21 09:24:32;;;;;;;6.60;1.00;;;16.10;91.70;;;;;;5082205;28;20097;-64
2022/09/21 09:27:18;;;;;;;5.70;1.00;;;16.30;87.80;;;;;;5065565;28;20127;-64
2022/09/21 09:29:53;;;;;;;6.45;1.25;;;16.40;84.10;;;;;;5070936;28;20128;-64
2022/09/21 09:32:32;;;;;;;6.07;1.42;;;16.60;82.40;;;;;;5065172;28;20058;-64
2022/09/21 09:35:24;;;;;;;6.30;1.30;;;16.70;78.70;;;;;;5065037;28;20032;-64
2022/09/21 09:37:55;;;;;;;4.80;1.15;;;16.80;74.80;;;;;;5086948;28;20276;-64
2022/09/21 09:40:36;;;;;;;7.75;1.20;;;16.80;66.50;;;;;;5085604;28;20071;-64
2022/09/21 09:43:23;;;;;;;11.02;1.30;;;16.80;66.70;;;;;;5086380;28;20043;-64
2022/09/21 09:46:00;;;;;;;3.42;0.90;;;16.90;68.50;;;;;;5080704;28;20052;-63
2022/09/21 09:48:50;;;;;;;10.85;2.17;;;16.90;74.90;;;;;;5086107;28;20035;-64
2022/09/21 09:51:18;;;;;;;5.07;1.02;;;17.00;70.80;;;;;;5084642;28;20040;-64
2022/09/21 09:53:43;;;;;;;4.13;1.10;;;17.10;57.30;;;;;;5073128;28;20052;-64
2022/09/21 09:56:11;;;;;;;5.20;1.50;;;17.20;58.10;;;;;;5061301;28;20047;-64
2022/09/21 09:58:53;;;;;;;3.40;1.10;;;17.20;47.50;;;;;;5085244;28;20047;-64
2022/09/21 10:01:37;;;;;;;5.85;0.88;;;17.10;53.50;;;;;;5077982;28;20044;-64
2022/09/21 10:04:09;;;;;;;4.38;1.00;;;17.20;55.10;;;;;;5083937;28;20044;-64
2022/09/21 10:06:35;;;;;;;7.22;0.90;;;17.20;39.60;;;;;;5051989;28;20587;-64
2022/09/21 10:09:18;;;;;;;4.70;0.88;;;17.30;51.30;;;;;;5085239;28;20054;-65
2022/09/21 10:11:44;;;;;;;6.72;1.23;;;17.40;50.50;;;;;;5085857;28;20078;-65
2022/09/21 10:14:17;;;;;;;3.80;0.95;;;17.40;54.60;;;;;;5086214;28;20404;-65
2022/09/21 10:16:44;;;;;;;7.38;1.17;;;17.40;51.30;;;;;;5078738;28;20118;-65
2022/09/21 10:19:23;;;;;;;8.70;1.33;;;17.50;58.60;;;;;;5085611;28;20036;-65
2022/09/21 10:22:01;;;;;;;5.57;1.00;;;17.50;48.50;;;;;;5088695;28;20184;-65
2022/09/21 10:24:29;;;;;;;6.13;1.27;;;17.50;31.70;;;;;;5089519;28;20079;-65
2022/09/21 10:27:15;;;;;;;6.47;1.13;;;17.50;44.30;;;;;;5053333;28;20054;-65
2022/09/21 10:29:46;;;;;;;7.63;1.75;;;17.50;54.30;;;;;;5087979;28;20052;-65
2022/09/21 10:32:12;;;;;;;9.27;1.10;;;17.60;55.20;;;;;;5089268;28;20452;-65
2022/09/21 10:34:58;;;;;;;9.75;1.52;;;17.60;35.90;;;;;;5071927;28;20101;-65
2022/09/21 10:37:37;;;;;;;5.63;1.35;;;17.50;47.40;;;;;;5068088;28;20097;-65
2022/09/21 10:40:20;;;;;;;5.77;1.07;;;17.50;58.80;;;;;;5090450;28;20075;-65
2022/09/21 10:42:57;;;;;;;2.72;0.98;;;17.40;47.80;;;;;;5090410;28;20056;-65
2022/09/21 10:45:28;;;;;;;4.18;1.23;;;17.50;33.60;;;;;;5076114;28;20036;-65
2022/09/21 10:48:04;;;;;;;3.88;1.05;;;17.60;45.50;;;;;;5076177;28;20049;-65
2022/09/21 10:50:40;;;;;;;4.32;1.30;;;17.50;30.90;;;;;;5084029;28;20044;-65
2022/09/21 10:53:09;;;;;;;5.97;0.90;;;17.60;47.90;;;;;;5069034;28;20054;-65
2022/09/21 10:56:04;;;;;;;5.97;1.30;;;17.60;47.80;;;;;;5076687;28;20048;-65
2022/09/21 10:58:31;;;;;;;7.25;1.33;;;17.50;43.20;;;;;;5088523;28;20062;-64
2022/09/21 11:01:10;;;;;;;6.95;1.30;;;17.40;49.90;;;;;;5088640;28;20040;-65
2022/09/21 11:03:55;;;;;;;10.38;1.65;;;17.40;63.60;;;;;;5087817;28;20052;-65
2022/09/21 11:06:34;;;;;;;6.03;0.95;;;17.30;42.10;;;;;;5070535;28;20088;-65
2022/09/21 11:09:07;;;;;;;5.20;1.40;;;17.10;60.70;;;;;;5089247;28;20039;-65
2022/09/21 11:12:11;;;;;;;6.28;1.38;;;17.10;68.10;;;;;;5085686;28;20622;-65
2022/09/21 11:14:42;;;;;;;6.68;1.20;;;16.80;51.00;;;;;;5086118;28;20055;-65
2022/09/21 11:17:35;;;;;;;8.23;1.42;;;16.40;65.90;;;;;;5091294;28;20043;-65
2022/09/21 11:20:40;;;;;;;5.97;1.00;;;16.10;52.20;;;;;;5079289;28;20040;-65
2022/09/21 11:23:33;;;;;;;6.20;1.15;;;15.80;64.50;;;;;;5066680;28;20071;-65
2022/09/21 11:26:16;;;;;;;2.70;0.85;;;15.60;69.30;;;;;;5083089;28;20044;-65
2022/09/21 11:29:00;;;;;;;7.18;1.23;;;15.70;75.60;;;;;;5085399;28;20056;-65
2022/09/21 11:31:30;;;;;;;7.53;1.45;;;16.00;81.50;;;;;;5086458;28;20094;-65
2022/09/21 11:34:12;;;;;;;7.88;1.15;;;16.30;71.00;;;;;;5080044;28;20048;-64
2022/09/21 11:37:08;;;;;;;5.05;0.73;;;16.60;82.70;;;;;;5086811;28;20048;-65
2022/09/21 11:39:44;;;;;;;3.97;0.90;;;16.90;70.00;;;;;;5087129;28;20173;-65
2022/09/21 11:42:32;;;;;;;4.47;1.20;;;17.10;60.70;;;;;;5084524;28;20546;-65
2022/09/21 11:45:09;;;;;;;7.15;1.33;;;17.20;66.30;;;;;;5085099;28;20089;-65
2022/09/21 11:47:56;;;;;;;6.13;1.50;;;17.40;50.20;;;;;;5088126;28;20386;-65
2022/09/21 11:50:56;;;;;;;5.82;1.05;;;17.40;31.10;;;;;;5078857;28;20048;-65
2022/09/21 11:53:27;;;;;;;6.30;1.30;;;17.40;38.20;;;;;;5069413;28;20040;-65
2022/09/21 11:56:21;;;;;;;6.15;1.13;;;17.50;49.70;;;;;;5088061;28;20048;-64
2022/09/21 11:58:54;;;;;;;7.20;1.10;;;17.50;40.40;;;;;;5089124;28;20156;-65
2022/09/21 12:01:35;;;;;;;6.50;1.02;;;17.50;36.70;;;;;;5090989;28;20505;-65
2022/09/21 12:04:22;;;;;;;5.80;0.95;;;17.40;22.80;;;;;;5067501;28;20036;-64
2022/09/21 12:07:14;;;;;;;2.65;0.82;;;17.40;39.40;;;;;;5084600;28;20051;-64
2022/09/21 12:10:19;;;;;;;4.70;0.80;;;17.30;25.50;;;;;;5076499;28;20052;-65
2022/09/21 12:12:57;;;;;;;8.50;0.98;;;17.30;27.50;;;;;;5075533;28;20051;-64
2022/09/21 12:15:23;;;;;;;1.75;0.43;;;17.40;34.00;;;;;;5082759;28;20044;-65
2022/09/21 12:17:49;;;;;;;7.57;1.25;;;17.40;30.10;;;;;;5086711;28;20105;-65
2022/09/21 12:20:45;;;;;;;8.93;1.23;;;17.20;11.20;;;;;;5082066;28;20490;-64
2022/09/21 12:23:37;;;;;;;4.75;1.02;;;17.10;19.50;;;;;;5086717;28;20129;-64
2022/09/21 12:26:04;;;;;;;5.18;1.08;;;17.10;23.00;;;;;;5075059;28;20059;-64
2022/09/21 12:28:37;;;;;;;1.50;0.70;;;16.90;23.10;;;;;;5067249;28;20043;-65
2022/09/21 12:31:18;;;;;;;11.38;1.17;;;16.60;25.30;;;;;;5087243;28;20419;-64
2022/09/21 12:34:00;;;;;;;8.57;0.98;;;16.40;19.80;;;;;;5085310;28;20497;-64
2022/09/21 12:36:41;;;;;;;5.20;1.15;;;16.30;24.90;;;;;;5085489;28;20048;-64
2022/09/21 12:39:14;;;;;;;4.65;0.73;;;16.30;29.70;;;;;;5087409;28;20052;-64
2022/09/21 12:41:40;;;;;;;3.03;0.88;;;16.40;38.20;;;;;;5066979;28;20494;-65
2022/09/21 12:44:25;;;;;;;10.82;1.65;;;16.60;43.10;;;;;;5086592;28;20083;-65
2022/09/21 12:47:10;;;;;;;6.88;1.27;;;16.80;47.70;;;;;;5085971;28;20405;-65
2022/09/21 12:49:42;;;;;;;5.38;1.42;;;17.00;40.10;;;;;;5087144;28;20054;-65
2022/09/21 12:52:13;;;;;;;4.38;1.15;;;17.10;33.80;;;;;;5081518;28;20050;-70
2022/09/21 12:54:48;;;;;;;10.77;1.13;;;17.20;28.30;;;;;;5049974;28;20059;-64
2022/09/21 12:57:30;;;;;;;4.75;1.10;;;17.10;29.20;;;;;;5080060;28;20044;-65
2022/09/21 13:00:09;;;;;;;6.57;1.10;;;17.10;33.80;;;;;;5064412;28;20047;-65
2022/09/21 13:02:48;;;;;;;2.33;0.82;;;17.20;43.70;;;;;;5084218;28;20048;-65
2022/09/21 13:05:32;;;;;;;1.88;0.82;;;17.30;25.70;;;;;;5084462;28;20044;-65
2022/09/21 13:08:24;;;;;;;5.97;0.70;;;17.10;22.20;;;;;;5081327;28;20043;-64
2022/09/21 13:11:00;;;;;;;8.85;0.88;;;17.10;48.40;;;;;;5081357;28;20047;-65
2022/09/21 13:13:51;;;;;;;2.45;0.85;;;17.10;38.40;;;;;;5079942;28;20369;-65
2022/09/21 13:16:29;;;;;;;4.13;0.95;;;17.00;30.00;;;;;;5064670;28;20056;-65
2022/09/21 13:18:59;;;;;;;3.10;0.63;;;17.00;27.10;;;;;;5063877;28;20518;-65
2022/09/21 13:21:31;;;;;;;4.10;1.10;;;16.90;24.50;;;;;;5064319;28;20040;-65
2022/09/21 13:24:03;;;;;;;2.88;0.80;;;17.00;21.50;;;;;;5082944;28;20063;-64
2022/09/21 13:26:31;;;;;;;3.58;0.90;;;17.00;24.70;;;;;;5082455;28;20047;-65
2022/09/21 13:28:57;;;;;;;7.70;1.10;;;17.00;33.60;;;;;;5080477;28;20109;-65